Portada
METAR-TAF:

METAR-TAF

Aeropuertos :

Aeropuerto Internacional Hato

Curazao, Antillas Neerlandesas

latitud: 12-12N, longitud: 068-58W, altitud: 9 m

Observación

El informe se hizo hace 41 minutos, a las 15:00 UTC
Viento 10 kt del este
Temperatura 30°C
Humedad 66%
Presión 1014 hPa
Visibilidad 10 km o más

METAR: TNCC 091500Z 09010KT 9999 NCD 30/23 Q1014 NOSIG

Hora: 11:41 (15:41 UTC)

Pronóstico

El informe se hizo hace 4 horas y 26 minutos, a las 11:15 UTC
Pronóstico válido del 09 a las 12 UTC al 10 a las 12 UTC
Viento 13 kt del este
Visibilidad 10 km o más
Nubes dispersas a una altura de 2200 ft
Temporalmente
del 09 a las 12 UTC al 10 a las 12 UTC
Cielo nuboso a una altura de 1500 ft

TAF: TNCC 091115Z 0912/1012 08013KT 9999 SCT022 TEMPO 0912/1012 BKN015

Observaciones y pronósticos meteorológicos de más de 4000 aeropuertos (mensajes METAR y TAF).

Los puntos amarillos y rojos representan las estaciones disponibles.

Ponga el ratón en el punto deseado para ver el nombre de la estación.

Haga clic para ver las observaciones y los pronósticos meteorológicos.

Para cambiar el mapa : haga clic en los botones verdes con una cruz de color negro para hacer un zoom, en el botón verde con un guión para alejar o en las flechas verdes para mapas adyacentes.


METAR-TAF: